sensor_id;sensor_type;location;lat;lon;timestamp;P1;durP1;ratioP1;P2;durP2;ratioP2
595;SDS011;19946;49.306;11.350;2022-10-10T00:02:34;13.10;;;12.80;;
595;SDS011;19946;49.306;11.350;2022-10-10T00:05:36;13.10;;;12.80;;
595;SDS011;19946;49.306;11.350;2022-10-10T00:08:37;12.83;;;12.53;;
595;SDS011;19946;49.306;11.350;2022-10-10T00:11:38;13.00;;;12.70;;
595;SDS011;19946;49.306;11.350;2022-10-10T00:14:39;12.80;;;12.50;;
595;SDS011;19946;49.306;11.350;2022-10-10T00:17:40;12.40;;;12.10;;
595;SDS011;19946;49.306;11.350;2022-10-10T00:20:42;12.70;;;12.40;;
595;SDS011;19946;49.306;11.350;2022-10-10T00:23:43;12.00;;;11.80;;
595;SDS011;19946;49.306;11.350;2022-10-10T00:26:43;11.90;;;11.70;;
595;SDS011;19946;49.306;11.350;2022-10-10T00:29:44;12.20;;;12.00;;
595;SDS011;19946;49.306;11.350;2022-10-10T00:32:44;12.40;;;12.10;;
595;SDS011;19946;49.306;11.350;2022-10-10T00:35:44;12.50;;;12.20;;
595;SDS011;19946;49.306;11.350;2022-10-10T00:38:45;12.30;;;12.00;;
595;SDS011;19946;49.306;11.350;2022-10-10T00:41:46;12.47;;;12.17;;
595;SDS011;19946;49.306;11.350;2022-10-10T00:45:14;12.60;;;12.30;;
595;SDS011;19946;49.306;11.350;2022-10-10T00:48:23;13.20;;;12.90;;
595;SDS011;19946;49.306;11.350;2022-10-10T00:51:26;12.60;;;12.30;;
595;SDS011;19946;49.306;11.350;2022-10-10T00:54:28;12.90;;;12.60;;
595;SDS011;19946;49.306;11.350;2022-10-10T00:57:33;12.90;;;12.60;;
595;SDS011;19946;49.306;11.350;2022-10-10T01:00:33;12.37;;;12.10;;
595;SDS011;19946;49.306;11.350;2022-10-10T01:03:34;12.60;;;12.30;;
595;SDS011;19946;49.306;11.350;2022-10-10T01:06:36;12.40;;;12.10;;
595;SDS011;19946;49.306;11.350;2022-10-10T01:09:38;12.80;;;12.50;;
595;SDS011;19946;49.306;11.350;2022-10-10T01:15:57;12.80;;;12.50;;
595;SDS011;19946;49.306;11.350;2022-10-10T01:22:38;12.93;;;12.63;;
595;SDS011;19946;49.306;11.350;2022-10-10T01:32:55;12.63;;;12.33;;
595;SDS011;19946;49.306;11.350;2022-10-10T01:36:02;12.50;;;12.20;;
595;SDS011;19946;49.306;11.350;2022-10-10T01:39:17;12.03;;;11.83;;
595;SDS011;19946;49.306;11.350;2022-10-10T01:45:42;12.33;;;12.03;;
595;SDS011;19946;49.306;11.350;2022-10-10T01:48:45;12.80;;;12.50;;
595;SDS011;19946;49.306;11.350;2022-10-10T01:55:38;13.17;;;12.87;;
595;SDS011;19946;49.306;11.350;2022-10-10T01:58:48;12.80;;;12.50;;
595;SDS011;19946;49.306;11.350;2022-10-10T02:02:10;13.10;;;12.80;;
595;SDS011;19946;49.306;11.350;2022-10-10T02:08:42;12.70;;;12.40;;
595;SDS011;19946;49.306;11.350;2022-10-10T02:11:46;12.80;;;12.50;;
595;SDS011;19946;49.306;11.350;2022-10-10T02:14:52;12.80;;;12.50;;
595;SDS011;19946;49.306;11.350;2022-10-10T02:17:55;13.00;;;12.70;;
595;SDS011;19946;49.306;11.350;2022-10-10T02:20:57;13.30;;;13.00;;
595;SDS011;19946;49.306;11.350;2022-10-10T02:23:58;12.67;;;12.37;;
595;SDS011;19946;49.306;11.350;2022-10-10T02:27:07;12.97;;;12.67;;
595;SDS011;19946;49.306;11.350;2022-10-10T02:30:13;13.00;;;12.70;;
595;SDS011;19946;49.306;11.350;2022-10-10T02:33:15;13.00;;;12.70;;
595;SDS011;19946;49.306;11.350;2022-10-10T02:36:21;13.30;;;13.00;;
595;SDS011;19946;49.306;11.350;2022-10-10T02:39:25;12.90;;;12.60;;
595;SDS011;19946;49.306;11.350;2022-10-10T02:42:30;12.90;;;12.60;;
595;SDS011;19946;49.306;11.350;2022-10-10T02:45:33;13.30;;;13.00;;
595;SDS011;19946;49.306;11.350;2022-10-10T02:48:34;13.50;;;13.20;;
595;SDS011;19946;49.306;11.350;2022-10-10T02:51:35;13.27;;;12.97;;
595;SDS011;19946;49.306;11.350;2022-10-10T02:54:35;14.93;;;14.60;;
595;SDS011;19946;49.306;11.350;2022-10-10T02:57:36;12.90;;;12.60;;
595;SDS011;19946;49.306;11.350;2022-10-10T03:00:36;12.70;;;12.40;;
595;SDS011;19946;49.306;11.350;2022-10-10T03:03:36;12.80;;;12.50;;
595;SDS011;19946;49.306;11.350;2022-10-10T03:06:37;12.80;;;12.50;;
595;SDS011;19946;49.306;11.350;2022-10-10T03:09:39;13.70;;;13.40;;
595;SDS011;19946;49.306;11.350;2022-10-10T03:12:39;13.10;;;12.80;;
595;SDS011;19946;49.306;11.350;2022-10-10T03:15:40;13.70;;;13.40;;
595;SDS011;19946;49.306;11.350;2022-10-10T03:18:40;13.80;;;13.50;;
595;SDS011;19946;49.306;11.350;2022-10-10T03:21:40;14.13;;;13.83;;
595;SDS011;19946;49.306;11.350;2022-10-10T03:24:41;13.73;;;13.43;;
595;SDS011;19946;49.306;11.350;2022-10-10T03:27:41;14.20;;;13.90;;
595;SDS011;19946;49.306;11.350;2022-10-10T03:30:42;14.10;;;13.80;;
595;SDS011;19946;49.306;11.350;2022-10-10T03:33:43;14.27;;;13.97;;
595;SDS011;19946;49.306;11.350;2022-10-10T03:36:43;14.13;;;13.83;;
595;SDS011;19946;49.306;11.350;2022-10-10T03:39:43;14.20;;;13.90;;
595;SDS011;19946;49.306;11.350;2022-10-10T03:42:44;14.80;;;14.50;;
595;SDS011;19946;49.306;11.350;2022-10-10T03:45:46;14.33;;;14.03;;
595;SDS011;19946;49.306;11.350;2022-10-10T03:48:47;14.60;;;14.30;;
595;SDS011;19946;49.306;11.350;2022-10-10T03:51:48;14.40;;;14.10;;
595;SDS011;19946;49.306;11.350;2022-10-10T03:54:50;13.90;;;13.60;;
595;SDS011;19946;49.306;11.350;2022-10-10T03:57:51;14.50;;;14.20;;
595;SDS011;19946;49.306;11.350;2022-10-10T04:00:56;15.20;;;14.80;;
595;SDS011;19946;49.306;11.350;2022-10-10T04:03:59;14.80;;;14.50;;
595;SDS011;19946;49.306;11.350;2022-10-10T04:07:00;15.20;;;14.80;;
595;SDS011;19946;49.306;11.350;2022-10-10T04:10:00;15.30;;;14.90;;
595;SDS011;19946;49.306;11.350;2022-10-10T04:13:01;13.50;;;13.20;;
595;SDS011;19946;49.306;11.350;2022-10-10T04:16:02;13.63;;;13.33;;
595;SDS011;19946;49.306;11.350;2022-10-10T04:19:03;14.10;;;13.80;;
595;SDS011;19946;49.306;11.350;2022-10-10T04:22:04;13.90;;;13.60;;
595;SDS011;19946;49.306;11.350;2022-10-10T04:25:12;13.37;;;13.07;;
595;SDS011;19946;49.306;11.350;2022-10-10T04:28:19;13.30;;;13.00;;
595;SDS011;19946;49.306;11.350;2022-10-10T04:31:19;13.50;;;13.20;;
595;SDS011;19946;49.306;11.350;2022-10-10T04:34:19;13.50;;;13.20;;
595;SDS011;19946;49.306;11.350;2022-10-10T04:37:20;13.20;;;12.90;;
595;SDS011;19946;49.306;11.350;2022-10-10T04:40:20;13.60;;;13.30;;
595;SDS011;19946;49.306;11.350;2022-10-10T04:43:22;13.53;;;13.23;;
595;SDS011;19946;49.306;11.350;2022-10-10T04:46:22;13.50;;;13.20;;
595;SDS011;19946;49.306;11.350;2022-10-10T04:49:23;13.60;;;13.30;;
595;SDS011;19946;49.306;11.350;2022-10-10T04:52:23;13.33;;;13.03;;
595;SDS011;19946;49.306;11.350;2022-10-10T04:55:24;13.30;;;13.00;;
595;SDS011;19946;49.306;11.350;2022-10-10T04:58:24;13.50;;;13.20;;
595;SDS011;19946;49.306;11.350;2022-10-10T05:01:24;13.60;;;13.30;;
595;SDS011;19946;49.306;11.350;2022-10-10T05:04:25;13.23;;;12.93;;
595;SDS011;19946;49.306;11.350;2022-10-10T05:07:29;13.73;;;13.43;;
595;SDS011;19946;49.306;11.350;2022-10-10T05:10:36;13.40;;;13.10;;
595;SDS011;19946;49.306;11.350;2022-10-10T05:13:40;14.20;;;13.90;;
595;SDS011;19946;49.306;11.350;2022-10-10T05:16:42;13.30;;;13.00;;
595;SDS011;19946;49.306;11.350;2022-10-10T05:19:42;13.93;;;13.63;;
595;SDS011;19946;49.306;11.350;2022-10-10T05:22:43;14.50;;;14.20;;
595;SDS011;19946;49.306;11.350;2022-10-10T05:25:48;14.70;;;14.40;;
595;SDS011;19946;49.306;11.350;2022-10-10T05:28:50;14.60;;;14.30;;
595;SDS011;19946;49.306;11.350;2022-10-10T05:31:50;14.10;;;13.80;;
595;SDS011;19946;49.306;11.350;2022-10-10T05:34:52;14.60;;;14.30;;
595;SDS011;19946;49.306;11.350;2022-10-10T05:37:52;14.30;;;14.00;;
595;SDS011;19946;49.306;11.350;2022-10-10T05:40:53;14.40;;;14.10;;
595;SDS011;19946;49.306;11.350;2022-10-10T05:43:54;14.17;;;13.87;;
595;SDS011;19946;49.306;11.350;2022-10-10T05:46:54;14.50;;;14.20;;
595;SDS011;19946;49.306;11.350;2022-10-10T05:49:54;14.30;;;14.00;;
595;SDS011;19946;49.306;11.350;2022-10-10T05:52:55;14.50;;;14.20;;
595;SDS011;19946;49.306;11.350;2022-10-10T05:55:56;14.67;;;14.37;;
595;SDS011;19946;49.306;11.350;2022-10-10T05:58:56;14.20;;;13.90;;
595;SDS011;19946;49.306;11.350;2022-10-10T06:01:57;14.30;;;14.00;;
595;SDS011;19946;49.306;11.350;2022-10-10T06:04:57;14.43;;;14.13;;
595;SDS011;19946;49.306;11.350;2022-10-10T06:07:57;13.93;;;13.63;;
595;SDS011;19946;49.306;11.350;2022-10-10T06:11:05;14.80;;;14.50;;
595;SDS011;19946;49.306;11.350;2022-10-10T06:14:08;14.10;;;13.80;;
595;SDS011;19946;49.306;11.350;2022-10-10T06:17:09;14.10;;;13.80;;
595;SDS011;19946;49.306;11.350;2022-10-10T06:20:10;13.80;;;13.50;;
595;SDS011;19946;49.306;11.350;2022-10-10T06:23:10;13.73;;;13.43;;
595;SDS011;19946;49.306;11.350;2022-10-10T06:26:12;14.60;;;14.30;;
595;SDS011;19946;49.306;11.350;2022-10-10T06:29:12;15.93;;;15.53;;
595;SDS011;19946;49.306;11.350;2022-10-10T06:32:12;15.57;;;15.17;;
595;SDS011;19946;49.306;11.350;2022-10-10T06:35:13;15.77;;;15.37;;
595;SDS011;19946;49.306;11.350;2022-10-10T06:38:14;15.80;;;15.40;;
595;SDS011;19946;49.306;11.350;2022-10-10T06:41:15;18.50;;;18.00;;
595;SDS011;19946;49.306;11.350;2022-10-10T06:44:16;16.70;;;16.30;;
595;SDS011;19946;49.306;11.350;2022-10-10T06:47:17;16.90;;;16.50;;
595;SDS011;19946;49.306;11.350;2022-10-10T06:50:17;18.30;;;17.80;;
595;SDS011;19946;49.306;11.350;2022-10-10T06:53:17;18.20;;;17.70;;
595;SDS011;19946;49.306;11.350;2022-10-10T06:56:18;19.60;;;19.10;;
595;SDS011;19946;49.306;11.350;2022-10-10T06:59:20;17.87;;;17.37;;
595;SDS011;19946;49.306;11.350;2022-10-10T07:02:20;19.50;;;19.00;;
595;SDS011;19946;49.306;11.350;2022-10-10T07:05:22;16.50;;;16.10;;
595;SDS011;19946;49.306;11.350;2022-10-10T07:08:23;17.57;;;17.07;;
595;SDS011;19946;49.306;11.350;2022-10-10T07:11:24;17.60;;;17.10;;
595;SDS011;19946;49.306;11.350;2022-10-10T07:14:24;16.37;;;15.97;;
595;SDS011;19946;49.306;11.350;2022-10-10T07:17:26;17.00;;;16.60;;
595;SDS011;19946;49.306;11.350;2022-10-10T07:20:27;16.73;;;16.33;;
595;SDS011;19946;49.306;11.350;2022-10-10T07:23:28;15.90;;;15.50;;
595;SDS011;19946;49.306;11.350;2022-10-10T07:26:30;16.93;;;16.53;;
595;SDS011;19946;49.306;11.350;2022-10-10T07:29:36;17.70;;;17.20;;
595;SDS011;19946;49.306;11.350;2022-10-10T07:32:36;16.40;;;16.00;;
595;SDS011;19946;49.306;11.350;2022-10-10T07:35:36;17.60;;;17.10;;
595;SDS011;19946;49.306;11.350;2022-10-10T07:38:37;16.90;;;16.50;;
595;SDS011;19946;49.306;11.350;2022-10-10T07:41:37;16.50;;;16.10;;
595;SDS011;19946;49.306;11.350;2022-10-10T07:44:38;16.07;;;15.67;;
595;SDS011;19946;49.306;11.350;2022-10-10T07:47:38;22.33;;;21.70;;
595;SDS011;19946;49.306;11.350;2022-10-10T07:50:42;16.70;;;16.30;;
595;SDS011;19946;49.306;11.350;2022-10-10T07:53:43;17.50;;;17.00;;
595;SDS011;19946;49.306;11.350;2022-10-10T07:56:44;16.90;;;16.50;;
595;SDS011;19946;49.306;11.350;2022-10-10T07:59:44;16.57;;;16.17;;
595;SDS011;19946;49.306;11.350;2022-10-10T08:02:45;16.40;;;16.00;;
595;SDS011;19946;49.306;11.350;2022-10-10T08:05:45;17.43;;;16.93;;
595;SDS011;19946;49.306;11.350;2022-10-10T08:08:46;16.40;;;16.00;;
595;SDS011;19946;49.306;11.350;2022-10-10T08:11:49;17.17;;;16.67;;
595;SDS011;19946;49.306;11.350;2022-10-10T08:14:49;17.30;;;16.80;;
595;SDS011;19946;49.306;11.350;2022-10-10T08:17:50;17.90;;;17.40;;
595;SDS011;19946;49.306;11.350;2022-10-10T08:20:57;17.90;;;17.40;;
595;SDS011;19946;49.306;11.350;2022-10-10T08:24:01;19.10;;;18.60;;
595;SDS011;19946;49.306;11.350;2022-10-10T08:27:02;17.90;;;17.40;;
595;SDS011;19946;49.306;11.350;2022-10-10T08:30:02;18.00;;;17.50;;
595;SDS011;19946;49.306;11.350;2022-10-10T08:33:03;17.40;;;16.90;;
595;SDS011;19946;49.306;11.350;2022-10-10T08:36:04;18.60;;;18.10;;
595;SDS011;19946;49.306;11.350;2022-10-10T08:39:07;18.40;;;17.90;;
595;SDS011;19946;49.306;11.350;2022-10-10T08:42:08;18.50;;;18.00;;
595;SDS011;19946;49.306;11.350;2022-10-10T08:45:16;18.17;;;17.67;;
595;SDS011;19946;49.306;11.350;2022-10-10T08:48:22;17.80;;;17.30;;
595;SDS011;19946;49.306;11.350;2022-10-10T08:51:27;17.20;;;16.70;;
595;SDS011;19946;49.306;11.350;2022-10-10T08:54:31;18.40;;;17.90;;
595;SDS011;19946;49.306;11.350;2022-10-10T08:57:40;17.90;;;17.40;;
595;SDS011;19946;49.306;11.350;2022-10-10T09:04:04;19.17;;;18.57;;
595;SDS011;19946;49.306;11.350;2022-10-10T09:07:11;19.20;;;18.60;;
595;SDS011;19946;49.306;11.350;2022-10-10T09:10:28;20.30;;;19.70;;
595;SDS011;19946;49.306;11.350;2022-10-10T09:23:56;18.13;;;17.63;;
595;SDS011;19946;49.306;11.350;2022-10-10T09:27:03;19.00;;;18.40;;
595;SDS011;19946;49.306;11.350;2022-10-10T09:30:09;19.20;;;18.60;;
595;SDS011;19946;49.306;11.350;2022-10-10T09:36:31;21.27;;;20.57;;
595;SDS011;19946;49.306;11.350;2022-10-10T09:42:43;20.30;;;19.60;;
595;SDS011;19946;49.306;11.350;2022-10-10T09:45:45;19.93;;;19.23;;
595;SDS011;19946;49.306;11.350;2022-10-10T09:48:50;20.00;;;19.30;;
595;SDS011;19946;49.306;11.350;2022-10-10T09:51:51;20.37;;;19.67;;
595;SDS011;19946;49.306;11.350;2022-10-10T09:55:02;19.30;;;18.70;;
595;SDS011;19946;49.306;11.350;2022-10-10T10:01:31;20.23;;;19.63;;
595;SDS011;19946;49.306;11.350;2022-10-10T10:04:32;20.10;;;19.50;;
595;SDS011;19946;49.306;11.350;2022-10-10T10:07:33;19.90;;;19.30;;
595;SDS011;19946;49.306;11.350;2022-10-10T10:10:35;19.50;;;18.90;;
595;SDS011;19946;49.306;11.350;2022-10-10T10:13:37;20.40;;;19.70;;
595;SDS011;19946;49.306;11.350;2022-10-10T10:16:37;19.80;;;19.20;;
595;SDS011;19946;49.306;11.350;2022-10-10T10:19:39;20.10;;;19.40;;
595;SDS011;19946;49.306;11.350;2022-10-10T10:22:44;20.13;;;19.53;;
595;SDS011;19946;49.306;11.350;2022-10-10T10:25:45;20.20;;;19.50;;
595;SDS011;19946;49.306;11.350;2022-10-10T10:28:57;20.70;;;20.00;;
595;SDS011;19946;49.306;11.350;2022-10-10T10:35:29;22.33;;;21.63;;
595;SDS011;19946;49.306;11.350;2022-10-10T10:38:42;21.00;;;20.30;;
595;SDS011;19946;49.306;11.350;2022-10-10T10:57:54;21.13;;;20.43;;
595;SDS011;19946;49.306;11.350;2022-10-10T11:14:54;21.10;;;20.40;;
595;SDS011;19946;49.306;11.350;2022-10-10T11:18:04;21.07;;;20.37;;
595;SDS011;19946;49.306;11.350;2022-10-10T11:21:14;21.00;;;20.30;;
595;SDS011;19946;49.306;11.350;2022-10-10T11:27:40;21.10;;;20.40;;
595;SDS011;19946;49.306;11.350;2022-10-10T11:30:48;21.67;;;20.97;;
595;SDS011;19946;49.306;11.350;2022-10-10T11:33:58;20.97;;;20.27;;
595;SDS011;19946;49.306;11.350;2022-10-10T11:37:03;20.93;;;20.23;;
595;SDS011;19946;49.306;11.350;2022-10-10T11:40:21;20.13;;;19.43;;
595;SDS011;19946;49.306;11.350;2022-10-10T11:43:31;20.87;;;20.17;;
595;SDS011;19946;49.306;11.350;2022-10-10T11:46:40;20.87;;;20.17;;
595;SDS011;19946;49.306;11.350;2022-10-10T11:56:50;20.60;;;19.90;;
595;SDS011;19946;49.306;11.350;2022-10-10T11:59:58;20.20;;;19.50;;
595;SDS011;19946;49.306;11.350;2022-10-10T12:03:01;20.40;;;19.70;;
595;SDS011;19946;49.306;11.350;2022-10-10T12:06:10;21.47;;;20.67;;
595;SDS011;19946;49.306;11.350;2022-10-10T12:09:19;21.07;;;20.37;;
595;SDS011;19946;49.306;11.350;2022-10-10T12:12:37;20.57;;;19.87;;
595;SDS011;19946;49.306;11.350;2022-10-10T12:15:43;20.77;;;20.07;;
595;SDS011;19946;49.306;11.350;2022-10-10T12:18:45;20.70;;;20.00;;
595;SDS011;19946;49.306;11.350;2022-10-10T12:34:15;20.70;;;20.00;;
595;SDS011;19946;49.306;11.350;2022-10-10T12:37:35;20.50;;;19.80;;
595;SDS011;19946;49.306;11.350;2022-10-10T12:47:28;20.90;;;20.20;;
595;SDS011;19946;49.306;11.350;2022-10-10T12:50:41;21.80;;;21.00;;
595;SDS011;19946;49.306;11.350;2022-10-10T12:53:43;21.00;;;20.30;;
595;SDS011;19946;49.306;11.350;2022-10-10T12:56:50;19.60;;;18.90;;
595;SDS011;19946;49.306;11.350;2022-10-10T13:00:05;20.10;;;19.40;;
595;SDS011;19946;49.306;11.350;2022-10-10T13:03:15;20.13;;;19.43;;
595;SDS011;19946;49.306;11.350;2022-10-10T13:06:39;20.10;;;19.40;;
595;SDS011;19946;49.306;11.350;2022-10-10T13:09:45;21.30;;;20.60;;
595;SDS011;19946;49.306;11.350;2022-10-10T13:12:56;22.10;;;21.30;;
595;SDS011;19946;49.306;11.350;2022-10-10T13:16:06;21.90;;;21.10;;
595;SDS011;19946;49.306;11.350;2022-10-10T13:19:15;21.20;;;20.50;;
595;SDS011;19946;49.306;11.350;2022-10-10T13:22:21;21.27;;;20.57;;
595;SDS011;19946;49.306;11.350;2022-10-10T13:25:23;21.30;;;20.60;;
595;SDS011;19946;49.306;11.350;2022-10-10T13:28:23;20.87;;;20.17;;
595;SDS011;19946;49.306;11.350;2022-10-10T13:31:24;21.20;;;20.50;;
595;SDS011;19946;49.306;11.350;2022-10-10T13:34:27;20.83;;;20.13;;
595;SDS011;19946;49.306;11.350;2022-10-10T13:37:30;20.83;;;20.13;;
595;SDS011;19946;49.306;11.350;2022-10-10T13:40:31;21.37;;;20.60;;
595;SDS011;19946;49.306;11.350;2022-10-10T13:43:32;21.70;;;20.90;;
595;SDS011;19946;49.306;11.350;2022-10-10T13:46:33;21.57;;;20.77;;
595;SDS011;19946;49.306;11.350;2022-10-10T13:49:33;21.40;;;20.60;;
595;SDS011;19946;49.306;11.350;2022-10-10T13:52:34;20.50;;;19.80;;
595;SDS011;19946;49.306;11.350;2022-10-10T13:55:35;20.70;;;20.00;;
595;SDS011;19946;49.306;11.350;2022-10-10T14:01:42;21.40;;;20.60;;
595;SDS011;19946;49.306;11.350;2022-10-10T14:04:48;21.90;;;21.10;;
595;SDS011;19946;49.306;11.350;2022-10-10T14:07:52;21.67;;;20.87;;
595;SDS011;19946;49.306;11.350;2022-10-10T14:10:58;22.43;;;21.63;;
595;SDS011;19946;49.306;11.350;2022-10-10T14:14:03;21.90;;;21.10;;
595;SDS011;19946;49.306;11.350;2022-10-10T14:17:08;22.27;;;21.47;;
595;SDS011;19946;49.306;11.350;2022-10-10T14:20:10;21.90;;;21.10;;
595;SDS011;19946;49.306;11.350;2022-10-10T14:23:12;23.37;;;22.47;;
595;SDS011;19946;49.306;11.350;2022-10-10T14:26:14;21.73;;;20.93;;
595;SDS011;19946;49.306;11.350;2022-10-10T14:29:17;21.70;;;20.90;;
595;SDS011;19946;49.306;11.350;2022-10-10T14:32:19;21.80;;;21.00;;
595;SDS011;19946;49.306;11.350;2022-10-10T14:35:19;21.70;;;20.90;;
595;SDS011;19946;49.306;11.350;2022-10-10T14:38:20;22.53;;;21.73;;
595;SDS011;19946;49.306;11.350;2022-10-10T14:41:21;21.83;;;21.03;;
595;SDS011;19946;49.306;11.350;2022-10-10T14:44:21;21.00;;;20.20;;
595;SDS011;19946;49.306;11.350;2022-10-10T14:47:22;21.00;;;20.20;;
595;SDS011;19946;49.306;11.350;2022-10-10T14:50:24;21.60;;;20.80;;
595;SDS011;19946;49.306;11.350;2022-10-10T14:53:27;22.30;;;21.50;;
595;SDS011;19946;49.306;11.350;2022-10-10T14:56:27;22.20;;;21.40;;
595;SDS011;19946;49.306;11.350;2022-10-10T14:59:28;21.93;;;21.13;;
595;SDS011;19946;49.306;11.350;2022-10-10T15:02:29;21.80;;;21.00;;
595;SDS011;19946;49.306;11.350;2022-10-10T15:05:29;20.90;;;20.20;;
595;SDS011;19946;49.306;11.350;2022-10-10T15:08:30;20.90;;;20.20;;
595;SDS011;19946;49.306;11.350;2022-10-10T15:11:30;21.23;;;20.50;;
595;SDS011;19946;49.306;11.350;2022-10-10T15:14:30;20.23;;;19.53;;
595;SDS011;19946;49.306;11.350;2022-10-10T15:17:31;20.30;;;19.60;;
595;SDS011;19946;49.306;11.350;2022-10-10T15:20:33;20.50;;;19.80;;
595;SDS011;19946;49.306;11.350;2022-10-10T15:23:35;20.20;;;19.50;;
595;SDS011;19946;49.306;11.350;2022-10-10T15:26:36;20.87;;;20.13;;
595;SDS011;19946;49.306;11.350;2022-10-10T15:29:39;20.50;;;19.80;;
595;SDS011;19946;49.306;11.350;2022-10-10T15:32:40;20.83;;;20.13;;
595;SDS011;19946;49.306;11.350;2022-10-10T15:35:41;23.37;;;22.57;;
595;SDS011;19946;49.306;11.350;2022-10-10T15:38:41;20.23;;;19.63;;
595;SDS011;19946;49.306;11.350;2022-10-10T15:41:41;20.60;;;19.90;;
595;SDS011;19946;49.306;11.350;2022-10-10T15:44:45;20.60;;;19.90;;
595;SDS011;19946;49.306;11.350;2022-10-10T15:47:46;20.37;;;19.67;;
595;SDS011;19946;49.306;11.350;2022-10-10T15:50:46;20.20;;;19.50;;
595;SDS011;19946;49.306;11.350;2022-10-10T15:53:47;19.97;;;19.30;;
595;SDS011;19946;49.306;11.350;2022-10-10T15:56:50;20.10;;;19.50;;
595;SDS011;19946;49.306;11.350;2022-10-10T15:59:51;20.70;;;20.00;;
595;SDS011;19946;49.306;11.350;2022-10-10T16:02:51;23.80;;;23.00;;
595;SDS011;19946;49.306;11.350;2022-10-10T16:05:51;20.67;;;19.97;;
595;SDS011;19946;49.306;11.350;2022-10-10T16:08:52;20.57;;;19.87;;
595;SDS011;19946;49.306;11.350;2022-10-10T16:11:53;21.40;;;20.70;;
595;SDS011;19946;49.306;11.350;2022-10-10T16:14:53;21.97;;;21.27;;
595;SDS011;19946;49.306;11.350;2022-10-10T16:17:54;21.70;;;21.00;;
595;SDS011;19946;49.306;11.350;2022-10-10T16:20:54;21.80;;;21.10;;
595;SDS011;19946;49.306;11.350;2022-10-10T16:23:54;22.33;;;21.63;;
595;SDS011;19946;49.306;11.350;2022-10-10T16:26:56;22.93;;;22.23;;
595;SDS011;19946;49.306;11.350;2022-10-10T16:29:58;22.77;;;22.07;;
595;SDS011;19946;49.306;11.350;2022-10-10T16:32:58;22.87;;;22.17;;
595;SDS011;19946;49.306;11.350;2022-10-10T16:35:59;29.07;;;28.17;;
595;SDS011;19946;49.306;11.350;2022-10-10T16:39:00;31.50;;;30.50;;
595;SDS011;19946;49.306;11.350;2022-10-10T16:42:00;31.77;;;30.77;;
595;SDS011;19946;49.306;11.350;2022-10-10T16:45:01;35.00;;;33.90;;
595;SDS011;19946;49.306;11.350;2022-10-10T16:48:01;27.03;;;26.20;;
595;SDS011;19946;49.306;11.350;2022-10-10T16:51:02;24.47;;;23.67;;
595;SDS011;19946;49.306;11.350;2022-10-10T16:54:05;26.40;;;25.50;;
595;SDS011;19946;49.306;11.350;2022-10-10T16:57:25;26.60;;;25.70;;
595;SDS011;19946;49.306;11.350;2022-10-10T17:00:25;34.93;;;33.73;;
595;SDS011;19946;49.306;11.350;2022-10-10T17:03:26;25.63;;;24.77;;
595;SDS011;19946;49.306;11.350;2022-10-10T17:06:26;35.23;;;34.03;;
595;SDS011;19946;49.306;11.350;2022-10-10T17:09:28;30.27;;;29.27;;
595;SDS011;19946;49.306;11.350;2022-10-10T17:12:29;32.70;;;31.60;;
595;SDS011;19946;49.306;11.350;2022-10-10T17:15:30;37.83;;;36.53;;
595;SDS011;19946;49.306;11.350;2022-10-10T17:18:31;58.10;;;56.00;;
595;SDS011;19946;49.306;11.350;2022-10-10T17:21:32;54.80;;;52.80;;
595;SDS011;19946;49.306;11.350;2022-10-10T17:24:33;56.70;;;54.70;;
595;SDS011;19946;49.306;11.350;2022-10-10T17:27:35;36.93;;;35.63;;
595;SDS011;19946;49.306;11.350;2022-10-10T17:30:43;37.30;;;36.10;;
595;SDS011;19946;49.306;11.350;2022-10-10T17:33:46;62.20;;;60.10;;
595;SDS011;19946;49.306;11.350;2022-10-10T17:36:47;57.17;;;55.17;;
595;SDS011;19946;49.306;11.350;2022-10-10T17:39:47;75.70;;;73.10;;
595;SDS011;19946;49.306;11.350;2022-10-10T17:42:48;132.80;;;128.50;;
595;SDS011;19946;49.306;11.350;2022-10-10T17:45:48;213.70;;;206.97;;
595;SDS011;19946;49.306;11.350;2022-10-10T17:48:49;238.30;;;230.90;;
595;SDS011;19946;49.306;11.350;2022-10-10T17:51:49;161.70;;;156.70;;
595;SDS011;19946;49.306;11.350;2022-10-10T17:54:50;128.50;;;124.50;;
595;SDS011;19946;49.306;11.350;2022-10-10T17:57:50;152.27;;;147.47;;
595;SDS011;19946;49.306;11.350;2022-10-10T18:00:51;147.73;;;143.03;;
595;SDS011;19946;49.306;11.350;2022-10-10T18:03:58;241.80;;;234.33;;
595;SDS011;19946;49.306;11.350;2022-10-10T18:06:59;218.63;;;212.03;;
595;SDS011;19946;49.306;11.350;2022-10-10T18:09:59;238.77;;;231.57;;
595;SDS011;19946;49.306;11.350;2022-10-10T18:13:00;200.20;;;194.10;;
595;SDS011;19946;49.306;11.350;2022-10-10T18:16:05;207.70;;;201.33;;
595;SDS011;19946;49.306;11.350;2022-10-10T18:31:35;179.50;;;174.00;;
595;SDS011;19946;49.306;11.350;2022-10-10T18:34:38;155.20;;;150.53;;
595;SDS011;19946;49.306;11.350;2022-10-10T18:37:38;254.90;;;247.20;;
595;SDS011;19946;49.306;11.350;2022-10-10T18:40:38;350.37;;;338.73;;
595;SDS011;19946;49.306;11.350;2022-10-10T18:43:39;360.30;;;348.57;;
595;SDS011;19946;49.306;11.350;2022-10-10T18:46:41;347.63;;;336.57;;
595;SDS011;19946;49.306;11.350;2022-10-10T18:49:42;397.37;;;384.50;;
595;SDS011;19946;49.306;11.350;2022-10-10T18:52:42;372.27;;;360.43;;
595;SDS011;19946;49.306;11.350;2022-10-10T18:55:52;366.87;;;355.33;;
595;SDS011;19946;49.306;11.350;2022-10-10T18:58:58;377.17;;;365.03;;
595;SDS011;19946;49.306;11.350;2022-10-10T19:02:02;316.83;;;306.80;;
595;SDS011;19946;49.306;11.350;2022-10-10T19:05:03;261.43;;;253.23;;
595;SDS011;19946;49.306;11.350;2022-10-10T19:08:04;336.20;;;324.90;;
595;SDS011;19946;49.306;11.350;2022-10-10T19:11:05;312.37;;;302.30;;
595;SDS011;19946;49.306;11.350;2022-10-10T19:14:08;316.70;;;306.60;;
595;SDS011;19946;49.306;11.350;2022-10-10T19:17:10;307.40;;;297.80;;
595;SDS011;19946;49.306;11.350;2022-10-10T19:20:11;221.67;;;214.77;;
595;SDS011;19946;49.306;11.350;2022-10-10T19:23:14;288.50;;;279.20;;
595;SDS011;19946;49.306;11.350;2022-10-10T19:26:15;306.80;;;296.90;;
595;SDS011;19946;49.306;11.350;2022-10-10T19:29:16;359.23;;;347.23;;
595;SDS011;19946;49.306;11.350;2022-10-10T19:32:16;362.10;;;350.03;;
595;SDS011;19946;49.306;11.350;2022-10-10T19:35:16;335.03;;;324.13;;
595;SDS011;19946;49.306;11.350;2022-10-10T19:38:17;294.93;;;285.63;;
595;SDS011;19946;49.306;11.350;2022-10-10T19:41:18;227.57;;;220.47;;
595;SDS011;19946;49.306;11.350;2022-10-10T19:44:19;258.00;;;249.93;;
595;SDS011;19946;49.306;11.350;2022-10-10T19:47:19;477.17;;;460.97;;
595;SDS011;19946;49.306;11.350;2022-10-10T19:50:19;311.47;;;301.47;;
595;SDS011;19946;49.306;11.350;2022-10-10T19:53:20;563.93;;;544.93;;
595;SDS011;19946;49.306;11.350;2022-10-10T19:56:21;489.57;;;473.23;;
595;SDS011;19946;49.306;11.350;2022-10-10T19:59:25;448.53;;;433.30;;
595;SDS011;19946;49.306;11.350;2022-10-10T20:02:26;333.63;;;323.07;;
595;SDS011;19946;49.306;11.350;2022-10-10T20:05:26;317.47;;;307.67;;
595;SDS011;19946;49.306;11.350;2022-10-10T20:08:27;369.07;;;357.27;;